createdAt,value
2018-07-13T00:01:06.326Z,18.50
2018-07-13T00:03:33.967Z,18.50
2018-07-13T00:06:01.269Z,18.50
2018-07-13T00:08:28.538Z,18.50
2018-07-13T00:10:55.837Z,18.40
2018-07-13T00:13:23.182Z,18.40
2018-07-13T00:18:23.349Z,18.40
2018-07-13T00:23:18.236Z,18.30
2018-07-13T00:25:45.493Z,18.40
2018-07-13T00:28:12.782Z,18.30
2018-07-13T00:30:40.075Z,18.20
2018-07-13T00:33:07.442Z,18.20
2018-07-13T00:35:34.741Z,18.20
2018-07-13T00:38:02.019Z,18.20
2018-07-13T00:40:29.279Z,18.10
2018-07-13T00:42:56.597Z,18.10
2018-07-13T00:45:23.837Z,18.10
2018-07-13T00:47:51.137Z,18.10
2018-07-13T00:50:18.428Z,18.10
2018-07-13T00:52:45.752Z,18.10
2018-07-13T00:55:13.050Z,18.00
2018-07-13T01:00:07.833Z,18.10
2018-07-13T01:02:35.105Z,18.10
2018-07-13T01:05:02.410Z,18.00
2018-07-13T01:07:29.702Z,18.00
2018-07-13T01:09:56.997Z,18.00
2018-07-13T01:12:24.296Z,18.00
2018-07-13T01:14:51.559Z,17.90
2018-07-13T01:17:21.820Z,17.90
2018-07-13T01:19:49.225Z,17.90
2018-07-13T01:22:16.470Z,17.90
2018-07-13T01:24:43.756Z,17.90
2018-07-13T01:27:11.075Z,17.90
2018-07-13T01:29:38.343Z,17.90
2018-07-13T01:32:06.061Z,17.90
2018-07-13T01:34:33.391Z,17.90
2018-07-13T01:39:27.937Z,17.80
2018-07-13T01:41:55.227Z,17.80
2018-07-13T01:44:22.540Z,17.80
2018-07-13T01:46:50.623Z,17.80
2018-07-13T01:49:17.967Z,17.80
2018-07-13T01:51:45.219Z,17.80
2018-07-13T01:54:12.503Z,17.90
2018-07-13T01:56:39.765Z,17.80
2018-07-13T01:59:07.082Z,17.80
2018-07-13T02:04:01.705Z,17.90
2018-07-13T02:06:29.017Z,17.80
2018-07-13T02:08:56.280Z,17.80
2018-07-13T02:11:23.520Z,17.80
2018-07-13T02:13:50.812Z,17.90
2018-07-13T02:16:18.089Z,17.80
2018-07-13T02:18:45.335Z,17.80
2018-07-13T02:21:12.612Z,17.80
2018-07-13T02:23:39.864Z,17.80
2018-07-13T02:26:07.155Z,17.70
2018-07-13T02:28:34.510Z,17.70
2018-07-13T02:31:01.784Z,17.70
2018-07-13T02:33:29.095Z,17.70
2018-07-13T02:35:56.360Z,17.70
2018-07-13T02:38:23.620Z,17.70
2018-07-13T02:40:50.902Z,17.60
2018-07-13T02:43:18.203Z,17.60
2018-07-13T02:45:45.476Z,17.60
2018-07-13T02:48:12.757Z,17.60
2018-07-13T02:50:40.039Z,17.60
2018-07-13T02:53:07.292Z,17.60
2018-07-13T02:55:34.614Z,17.60
2018-07-13T02:58:01.904Z,17.60
2018-07-13T03:00:29.226Z,17.60
2018-07-13T03:02:56.492Z,17.50
2018-07-13T03:07:51.030Z,17.40
2018-07-13T03:10:18.376Z,17.40
2018-07-13T03:12:45.645Z,17.30
2018-07-13T03:15:13.005Z,17.40
2018-07-13T03:17:40.290Z,17.30
2018-07-13T03:20:07.710Z,17.30
2018-07-13T03:22:34.982Z,17.30
2018-07-13T03:25:02.280Z,17.20
2018-07-13T03:27:29.551Z,17.20
2018-07-13T03:29:56.813Z,17.20
2018-07-13T03:32:24.092Z,17.20
2018-07-13T03:34:51.358Z,17.10
2018-07-13T03:39:45.981Z,17.00
2018-07-13T03:42:13.263Z,17.10
2018-07-13T03:44:40.539Z,17.10
2018-07-13T03:47:07.818Z,17.10
2018-07-13T03:49:35.078Z,17.10
2018-07-13T03:52:02.360Z,17.10
2018-07-13T03:54:29.700Z,17.10
2018-07-13T03:56:56.963Z,17.00
2018-07-13T03:59:24.293Z,17.00
2018-07-13T04:01:51.574Z,17.00
2018-07-13T04:04:18.982Z,17.00
2018-07-13T04:06:46.368Z,17.00
2018-07-13T04:09:13.802Z,17.00
2018-07-13T04:14:08.770Z,17.00
2018-07-13T04:16:36.051Z,17.00
2018-07-13T04:19:03.356Z,17.00
2018-07-13T04:21:30.660Z,17.00
2018-07-13T04:23:57.953Z,17.10
2018-07-13T04:26:25.294Z,17.10
2018-07-13T04:28:52.731Z,17.10
2018-07-13T04:31:19.973Z,17.10
2018-07-13T04:33:47.224Z,17.20
2018-07-13T04:36:14.504Z,17.30
2018-07-13T04:38:41.749Z,17.30
2018-07-13T04:41:09.160Z,17.30
2018-07-13T04:43:36.313Z,17.40
2018-07-13T04:46:03.681Z,17.40
2018-07-13T04:48:31.009Z,17.40
2018-07-13T04:50:58.339Z,17.40
2018-07-13T04:55:53.094Z,17.50
2018-07-13T04:58:20.403Z,17.50
2018-07-13T05:00:47.717Z,17.50
2018-07-13T05:03:15.270Z,17.60
2018-07-13T05:08:10.470Z,17.70
2018-07-13T05:10:37.825Z,17.70
2018-07-13T05:13:05.093Z,17.80
2018-07-13T05:15:32.553Z,17.80
2018-07-13T05:17:59.795Z,17.90
2018-07-13T05:22:55.601Z,18.00
2018-07-13T05:25:22.971Z,18.10
2018-07-13T05:27:50.340Z,18.10
2018-07-13T05:30:17.668Z,18.10
2018-07-13T05:32:45.009Z,18.20
2018-07-13T05:35:12.383Z,18.20
2018-07-13T05:37:39.704Z,18.30
2018-07-13T05:40:07.076Z,18.40
2018-07-13T05:42:34.434Z,18.50
2018-07-13T05:45:01.810Z,18.50
2018-07-13T05:47:29.192Z,18.50
2018-07-13T05:49:56.509Z,18.50
2018-07-13T05:52:25.985Z,18.60
2018-07-13T05:54:53.304Z,18.70
2018-07-13T05:57:20.673Z,18.70
2018-07-13T05:59:47.988Z,18.70
2018-07-13T06:02:15.308Z,18.70
2018-07-13T06:04:42.611Z,18.70
2018-07-13T06:07:09.929Z,18.80
2018-07-13T06:09:37.231Z,18.80
2018-07-13T06:12:04.689Z,18.90
2018-07-13T06:14:31.973Z,19.00
2018-07-13T06:16:59.270Z,19.00
2018-07-13T06:19:26.526Z,19.00
2018-07-13T06:21:53.860Z,19.10
2018-07-13T06:24:21.223Z,19.10
2018-07-13T06:26:48.471Z,19.20
2018-07-13T06:29:15.748Z,19.20
2018-07-13T06:31:43.048Z,19.30
2018-07-13T06:34:10.503Z,19.40
2018-07-13T06:36:37.852Z,19.40
2018-07-13T06:39:07.224Z,19.30
2018-07-13T06:44:01.895Z,19.40
2018-07-13T06:46:29.184Z,19.50
2018-07-13T06:48:57.256Z,19.60
2018-07-13T06:51:24.572Z,19.50
2018-07-13T06:53:51.883Z,19.60
2018-07-13T06:56:19.201Z,19.70
2018-07-13T06:58:57.711Z,19.80
2018-07-13T07:01:25.037Z,19.90
2018-07-13T07:06:00.292Z,20.00
2018-07-13T07:08:27.746Z,20.00
2018-07-13T07:10:55.288Z,20.10
2018-07-13T07:13:31.108Z,20.10
2018-07-13T07:15:58.576Z,20.20
2018-07-13T07:18:25.861Z,20.20
2018-07-13T07:20:53.738Z,20.20
2018-07-13T07:23:20.999Z,20.20
2018-07-13T07:25:48.344Z,20.40
2018-07-13T07:28:15.618Z,20.40
2018-07-13T07:30:42.966Z,20.40
2018-07-13T07:33:10.328Z,20.50
2018-07-13T07:35:37.601Z,20.40
2018-07-13T07:40:32.182Z,20.50
2018-07-13T07:42:59.501Z,20.50
2018-07-13T07:45:26.835Z,20.60
2018-07-13T07:47:54.104Z,20.60
2018-07-13T07:50:21.398Z,20.60
2018-07-13T07:55:15.995Z,20.70
2018-07-13T07:57:43.845Z,20.70
2018-07-13T08:00:11.232Z,20.80
2018-07-13T08:02:38.639Z,20.90
2018-07-13T08:05:05.986Z,21.00
2018-07-13T08:07:33.350Z,21.00
2018-07-13T08:12:27.917Z,21.10
2018-07-13T08:17:23.286Z,21.10
2018-07-13T08:19:50.593Z,21.10
2018-07-13T08:22:22.374Z,21.10
2018-07-13T08:24:52.685Z,21.10
2018-07-13T08:27:21.600Z,21.30
2018-07-13T08:29:49.241Z,21.30
2018-07-13T08:32:16.521Z,21.30
2018-07-13T08:34:43.805Z,21.40
2018-07-13T08:37:11.127Z,21.40
2018-07-13T08:39:38.376Z,21.40
2018-07-13T08:42:05.698Z,21.30
2018-07-13T08:44:33.030Z,21.30
2018-07-13T08:47:00.405Z,21.40
2018-07-13T08:49:27.784Z,21.60
2018-07-13T08:51:55.169Z,21.70
2018-07-13T08:54:22.499Z,21.70
2018-07-13T08:56:51.844Z,21.80
2018-07-13T08:59:19.252Z,21.80
2018-07-13T09:01:46.551Z,21.90
2018-07-13T09:06:41.185Z,21.90
2018-07-13T09:09:12.595Z,21.80
2018-07-13T09:11:40.246Z,21.90
2018-07-13T09:14:07.600Z,22.00
2018-07-13T09:16:36.562Z,22.10
2018-07-13T09:19:04.164Z,22.10
2018-07-13T09:21:31.533Z,22.10
2018-07-13T09:23:58.902Z,22.00
2018-07-13T09:26:26.861Z,22.10
2018-07-13T09:28:54.216Z,22.30
2018-07-13T09:31:21.553Z,22.20
2018-07-13T09:33:48.780Z,22.30
2018-07-13T09:36:16.112Z,22.40
2018-07-13T09:38:43.413Z,22.50
2018-07-13T09:41:10.749Z,22.60
2018-07-13T09:43:38.052Z,22.70
2018-07-13T09:46:05.379Z,22.80
2018-07-13T09:48:32.714Z,22.90
2018-07-13T09:51:00.061Z,22.90
2018-07-13T09:53:27.390Z,22.90
2018-07-13T09:55:54.701Z,23.00
2018-07-13T09:58:33.474Z,23.00
2018-07-13T10:01:06.401Z,23.00
2018-07-13T10:06:01.096Z,23.10
2018-07-13T10:08:28.412Z,23.10
2018-07-13T10:10:56.112Z,23.20
2018-07-13T10:13:23.600Z,23.20
2018-07-13T10:15:50.965Z,23.30
2018-07-13T10:18:18.424Z,23.30
2018-07-13T10:20:46.043Z,23.40
2018-07-13T10:23:13.327Z,23.40
2018-07-13T10:28:07.965Z,23.50
2018-07-13T10:33:02.945Z,23.40
2018-07-13T10:35:30.320Z,23.40
2018-07-13T10:37:57.593Z,23.40
2018-07-13T10:40:24.888Z,23.40
2018-07-13T10:42:52.248Z,23.50
2018-07-13T10:45:19.585Z,23.50
2018-07-13T10:47:46.897Z,23.60
2018-07-13T10:50:14.164Z,23.70
2018-07-13T10:52:41.438Z,23.70
2018-07-13T10:57:36.080Z,23.70
2018-07-13T11:00:03.489Z,23.80
2018-07-13T11:02:30.962Z,23.70
2018-07-13T11:04:58.345Z,23.70
2018-07-13T11:07:25.828Z,23.70
2018-07-13T11:09:53.108Z,23.80
2018-07-13T11:12:20.650Z,23.80
2018-07-13T11:14:47.909Z,23.80
2018-07-13T11:17:15.305Z,23.90
2018-07-13T11:19:42.794Z,23.90
2018-07-13T11:22:10.154Z,24.00
2018-07-13T11:24:37.478Z,24.00
2018-07-13T11:27:04.828Z,24.00
2018-07-13T11:29:32.218Z,24.10
2018-07-13T11:32:00.053Z,24.10
2018-07-13T11:34:27.356Z,24.00
2018-07-13T11:36:55.132Z,23.80
2018-07-13T11:39:22.393Z,23.90
2018-07-13T11:41:49.729Z,23.90
2018-07-13T11:44:17.141Z,23.80
2018-07-13T11:46:44.352Z,23.90
2018-07-13T11:54:06.658Z,23.90
2018-07-13T11:59:01.692Z,24.00
2018-07-13T12:03:56.496Z,24.10
2018-07-13T12:06:23.881Z,24.20
2018-07-13T12:08:51.204Z,24.30
2018-07-13T12:11:18.529Z,24.20
2018-07-13T12:13:45.789Z,24.10
2018-07-13T12:16:13.729Z,24.10
2018-07-13T12:18:42.108Z,24.00
2018-07-13T12:21:09.442Z,24.10
2018-07-13T12:23:36.741Z,24.20
2018-07-13T12:26:04.092Z,24.20
2018-07-13T12:28:31.752Z,24.10
2018-07-13T12:33:26.356Z,24.00
2018-07-13T12:35:54.008Z,23.80
2018-07-13T12:38:21.446Z,23.80
2018-07-13T12:40:48.919Z,23.60
2018-07-13T12:43:16.328Z,23.60
2018-07-13T12:45:44.821Z,23.50
2018-07-13T12:48:12.143Z,23.50
2018-07-13T12:53:07.073Z,23.60
2018-07-13T12:55:34.586Z,23.60
2018-07-13T12:58:02.101Z,23.60
2018-07-13T13:00:29.861Z,23.70
2018-07-13T13:02:57.380Z,23.80
2018-07-13T13:05:24.870Z,23.90
2018-07-13T13:07:52.272Z,23.90
2018-07-13T13:10:19.680Z,24.00
2018-07-13T13:12:47.149Z,24.00
2018-07-13T13:15:14.548Z,24.10
2018-07-13T13:17:41.966Z,24.10
2018-07-13T13:20:10.459Z,24.10
2018-07-13T13:22:37.945Z,24.10
2018-07-13T13:25:05.275Z,24.20
2018-07-13T13:27:32.898Z,24.30
2018-07-13T13:30:00.198Z,24.30
2018-07-13T13:32:27.621Z,24.40
2018-07-13T13:34:55.018Z,24.50
2018-07-13T13:37:22.419Z,24.60
2018-07-13T13:39:49.745Z,24.50
2018-07-13T13:42:17.158Z,24.50
2018-07-13T13:44:45.208Z,24.50
2018-07-13T13:47:13.257Z,24.40
2018-07-13T13:49:40.749Z,24.40
2018-07-13T13:52:08.028Z,24.40
2018-07-13T13:54:35.317Z,24.50
2018-07-13T13:57:02.950Z,24.60
2018-07-13T13:59:30.357Z,24.50
2018-07-13T14:01:57.670Z,24.60
2018-07-13T14:04:24.965Z,24.50
2018-07-13T14:06:52.484Z,24.60
2018-07-13T14:09:19.820Z,24.70
2018-07-13T14:11:47.110Z,24.60
2018-07-13T14:14:17.729Z,24.50
2018-07-13T14:16:58.325Z,24.60
2018-07-13T14:19:26.784Z,24.70
2018-07-13T14:21:58.062Z,24.80
2018-07-13T14:24:27.064Z,24.80
2018-07-13T14:26:59.434Z,24.80
2018-07-13T14:29:26.870Z,24.80
2018-07-13T14:32:05.679Z,24.80
2018-07-13T14:34:33.308Z,24.80
2018-07-13T14:37:02.902Z,24.80
2018-07-13T14:39:30.306Z,24.80
2018-07-13T14:41:57.874Z,24.90
2018-07-13T14:44:27.406Z,24.90
2018-07-13T14:46:54.893Z,24.80
2018-07-13T14:49:22.210Z,24.90
2018-07-13T14:51:50.658Z,24.80
2018-07-13T14:54:18.041Z,24.80
2018-07-13T14:56:45.369Z,24.90
2018-07-13T14:59:12.627Z,24.90
2018-07-13T15:01:40.153Z,25.00
2018-07-13T15:04:07.548Z,25.00
2018-07-13T15:06:35.265Z,24.90
2018-07-13T15:09:02.682Z,24.80
2018-07-13T15:13:58.200Z,24.60
2018-07-13T15:16:25.500Z,24.60
2018-07-13T15:21:20.444Z,24.70
2018-07-13T15:23:47.909Z,24.80
2018-07-13T15:26:15.357Z,24.70
2018-07-13T15:28:44.397Z,24.70
2018-07-13T15:31:11.882Z,24.90
2018-07-13T15:33:39.378Z,24.90
2018-07-13T15:36:06.804Z,24.90
2018-07-13T15:38:34.261Z,24.90
2018-07-13T15:41:01.688Z,25.10
2018-07-13T15:43:29.301Z,25.10
2018-07-13T15:45:56.731Z,25.10
2018-07-13T15:48:24.109Z,25.10
2018-07-13T15:50:51.546Z,25.10
2018-07-13T15:53:18.905Z,25.10
2018-07-13T15:56:03.444Z,25.10
2018-07-13T15:58:31.126Z,25.10
2018-07-13T16:00:58.421Z,25.10
2018-07-13T16:03:25.772Z,25.10
2018-07-13T16:05:54.062Z,25.10
2018-07-13T16:10:48.819Z,25.10
2018-07-13T16:13:16.469Z,25.00
2018-07-13T16:15:43.884Z,25.10
2018-07-13T16:18:11.174Z,25.10
2018-07-13T16:20:38.558Z,25.20
2018-07-13T16:23:05.865Z,25.10
2018-07-13T16:25:33.283Z,25.10
2018-07-13T16:30:26.181Z,25.20
2018-07-13T16:32:53.630Z,25.30
2018-07-13T16:35:20.904Z,25.30
2018-07-13T16:37:48.233Z,25.40
2018-07-13T16:40:15.533Z,25.30
2018-07-13T16:42:43.173Z,25.40
2018-07-13T16:45:10.546Z,25.40
2018-07-13T16:47:37.792Z,25.40
2018-07-13T16:50:05.708Z,25.40
2018-07-13T16:52:33.201Z,25.40
2018-07-13T16:55:00.487Z,25.40
2018-07-13T16:57:28.148Z,25.40
2018-07-13T16:59:55.457Z,25.40
2018-07-13T17:02:22.712Z,25.30
2018-07-13T17:04:49.998Z,25.30
2018-07-13T17:07:17.291Z,25.30
2018-07-13T17:09:44.576Z,25.20
2018-07-13T17:12:12.231Z,25.20
2018-07-13T17:14:39.628Z,25.20
2018-07-13T17:17:06.925Z,25.20
2018-07-13T17:19:34.177Z,25.20
2018-07-13T17:22:01.796Z,25.20
2018-07-13T17:24:29.093Z,25.20
2018-07-13T17:26:56.601Z,25.10
2018-07-13T17:29:24.008Z,25.10
2018-07-13T17:31:51.268Z,25.00
2018-07-13T17:34:18.725Z,25.00
2018-07-13T17:36:45.979Z,24.90
2018-07-13T17:39:13.268Z,25.00
2018-07-13T17:41:40.579Z,25.00
2018-07-13T17:44:08.060Z,24.90
2018-07-13T17:46:35.805Z,24.80
2018-07-13T17:49:03.114Z,24.70
2018-07-13T17:51:30.466Z,24.70
2018-07-13T17:56:25.063Z,24.70
2018-07-13T17:58:52.373Z,24.70
2018-07-13T18:03:46.910Z,24.60
2018-07-13T18:06:14.247Z,24.60
2018-07-13T18:08:41.955Z,24.60
2018-07-13T18:11:09.229Z,24.50
2018-07-13T18:13:36.804Z,24.50
2018-07-13T18:16:04.316Z,24.50
2018-07-13T18:18:31.853Z,24.50
2018-07-13T18:20:59.108Z,24.50
2018-07-13T18:23:26.708Z,24.40
2018-07-13T18:25:54.035Z,24.40
2018-07-13T18:28:21.427Z,24.30
2018-07-13T18:30:48.676Z,24.30
2018-07-13T18:33:16.145Z,24.30
2018-07-13T18:35:43.532Z,24.30
2018-07-13T18:38:11.289Z,24.20
2018-07-13T18:40:38.592Z,24.10
2018-07-13T18:43:05.965Z,24.10
2018-07-13T18:45:33.204Z,24.00
2018-07-13T18:48:00.733Z,23.90
2018-07-13T18:50:28.011Z,23.80
2018-07-13T18:55:22.664Z,23.70
2018-07-13T18:57:50.021Z,23.60
2018-07-13T19:02:44.554Z,23.40
2018-07-13T19:05:12.076Z,23.30
2018-07-13T19:07:39.509Z,23.20
2018-07-13T19:10:06.900Z,23.00
2018-07-13T19:12:34.199Z,23.00
2018-07-13T19:15:01.487Z,22.90
2018-07-13T19:17:28.760Z,22.80
2018-07-13T19:19:56.364Z,22.70
2018-07-13T19:22:23.643Z,22.60
2018-07-13T19:24:50.903Z,22.50
2018-07-13T19:27:18.214Z,22.50
2018-07-13T19:32:12.785Z,22.20
2018-07-13T19:34:40.049Z,22.10
2018-07-13T19:37:07.758Z,21.90
2018-07-13T19:39:35.026Z,21.80
2018-07-13T19:42:02.341Z,21.80
2018-07-13T19:44:29.672Z,21.70
2018-07-13T19:46:57.303Z,21.60
2018-07-13T19:49:24.720Z,21.60
2018-07-13T19:51:52.085Z,21.50
2018-07-13T19:54:19.625Z,21.40
2018-07-13T19:56:46.967Z,21.30
2018-07-13T19:59:14.850Z,21.20
2018-07-13T20:01:42.133Z,21.10
2018-07-13T20:04:09.455Z,21.00
2018-07-13T20:06:36.745Z,21.00
2018-07-13T20:09:05.091Z,20.90
2018-07-13T20:11:32.499Z,20.90
2018-07-13T20:14:00.285Z,20.80
2018-07-13T20:16:28.645Z,20.70
2018-07-13T20:18:56.131Z,20.70
2018-07-13T20:21:23.486Z,20.70
2018-07-13T20:26:18.384Z,20.40
2018-07-13T20:28:46.041Z,20.30
2018-07-13T20:31:13.384Z,20.30
2018-07-13T20:33:40.676Z,20.30
2018-07-13T20:36:08.887Z,20.20
2018-07-13T20:38:36.168Z,20.20
2018-07-13T20:41:03.625Z,20.20
2018-07-13T20:43:30.947Z,20.10
2018-07-13T20:45:58.213Z,20.20
2018-07-13T20:48:25.720Z,20.20
2018-07-13T20:50:53.260Z,20.20
2018-07-13T20:53:20.538Z,20.20
2018-07-13T20:55:47.876Z,20.10
2018-07-13T20:58:15.176Z,20.10
2018-07-13T21:00:42.607Z,20.00
2018-07-13T21:03:09.902Z,19.90
2018-07-13T21:05:37.440Z,19.80
2018-07-13T21:08:04.844Z,19.80
2018-07-13T21:10:32.171Z,19.80
2018-07-13T21:12:59.467Z,19.80
2018-07-13T21:15:26.821Z,19.80
2018-07-13T21:17:54.069Z,19.80
2018-07-13T21:22:48.685Z,19.70
2018-07-13T21:25:15.980Z,19.60
2018-07-13T21:27:43.264Z,19.60
2018-07-13T21:30:10.536Z,19.60
2018-07-13T21:32:37.836Z,19.60
2018-07-13T21:35:05.284Z,19.50
2018-07-13T21:37:32.555Z,19.40
2018-07-13T21:39:59.842Z,19.30
2018-07-13T21:42:27.124Z,19.20
2018-07-13T21:44:54.461Z,19.30
2018-07-13T21:47:21.800Z,19.20
2018-07-13T21:49:49.364Z,19.20
2018-07-13T21:52:16.759Z,19.10
2018-07-13T21:54:44.148Z,19.10
2018-07-13T21:57:11.664Z,19.70
2018-07-13T21:59:38.985Z,19.00
2018-07-13T22:02:06.426Z,19.00
2018-07-13T22:04:33.866Z,19.00
2018-07-13T22:07:01.237Z,19.00
2018-07-13T22:09:28.501Z,18.90
2018-07-13T22:11:55.804Z,19.00
2018-07-13T22:14:23.112Z,19.00
2018-07-13T22:16:50.383Z,18.90
2018-07-13T22:19:17.705Z,18.90
2018-07-13T22:21:45.218Z,18.90
2018-07-13T22:26:40.108Z,18.80
2018-07-13T22:29:07.362Z,18.80
2018-07-13T22:31:34.904Z,18.90
2018-07-13T22:34:02.376Z,18.60
2018-07-13T22:38:56.923Z,18.70
2018-07-13T22:41:24.417Z,18.70
2018-07-13T22:43:51.757Z,18.80
2018-07-13T22:46:19.025Z,18.80
2018-07-13T22:48:46.512Z,18.70
2018-07-13T22:51:14.233Z,18.70
2018-07-13T22:53:41.441Z,18.60
2018-07-13T22:56:08.922Z,18.60
2018-07-13T22:58:36.209Z,18.60
2018-07-13T23:01:03.517Z,18.60
2018-07-13T23:03:31.107Z,18.50
2018-07-13T23:05:59.292Z,18.40
2018-07-13T23:10:54.033Z,18.30
2018-07-13T23:13:21.306Z,18.20
2018-07-13T23:15:48.607Z,18.10
2018-07-13T23:18:15.877Z,18.10
2018-07-13T23:20:43.196Z,18.10
2018-07-13T23:23:10.692Z,18.10
2018-07-13T23:28:05.261Z,18.00
2018-07-13T23:30:32.918Z,18.10
2018-07-13T23:33:00.244Z,18.20
2018-07-13T23:37:54.804Z,18.10
2018-07-13T23:40:22.126Z,18.10
2018-07-13T23:42:49.404Z,18.00
2018-07-13T23:45:16.695Z,18.00
2018-07-13T23:47:43.985Z,18.00
2018-07-13T23:50:11.421Z,17.90
2018-07-13T23:52:38.724Z,18.00
2018-07-13T23:55:06.032Z,17.90
